Aviation Digital Data Service (ADDS)

Output produced by METARs form (0638 UTC 29 July 2014)
found at http://www.aviationweather.gov/adds/metars/
 
KSBY 290537Z 2906/3006 33009KT P6SM SKC 
     FM291500 32007KT P6SM SCT050 
     FM292300 VRB04KT P6SM SCT050 AMD NOT SKED